createdAt,value
2019-02-23T00:00:40.512Z,6.50
2019-02-23T00:03:51.346Z,6.95
2019-02-23T00:06:57.132Z,7.50
2019-02-23T00:10:02.960Z,7.08
2019-02-23T00:13:09.522Z,6.35
2019-02-23T00:16:15.280Z,5.85
2019-02-23T00:19:24.889Z,6.90
2019-02-23T00:22:28.675Z,6.00
2019-02-23T00:25:34.505Z,8.28
2019-02-23T00:28:40.361Z,6.70
2019-02-23T00:31:46.312Z,6.62
2019-02-23T00:34:52.275Z,7.17
2019-02-23T00:37:58.278Z,7.85
2019-02-23T00:41:04.128Z,5.95
2019-02-23T00:44:10.152Z,6.58
2019-02-23T00:47:17.137Z,6.40
2019-02-23T00:50:23.136Z,5.80
2019-02-23T00:53:28.888Z,5.80
2019-02-23T00:56:34.648Z,6.45
2019-02-23T00:59:40.357Z,7.12
2019-02-23T01:02:46.112Z,6.97
2019-02-23T01:05:52.008Z,6.53
2019-02-23T01:08:57.727Z,6.45
2019-02-23T01:12:03.585Z,6.22
2019-02-23T01:15:10.674Z,7.78
2019-02-23T01:18:16.535Z,6.12
2019-02-23T01:21:22.528Z,5.25
2019-02-23T01:24:28.348Z,6.45
2019-02-23T01:27:34.316Z,6.15
2019-02-23T01:30:40.303Z,6.30
2019-02-23T01:33:46.016Z,7.62
2019-02-23T01:36:53.047Z,6.67
2019-02-23T01:39:59.068Z,5.85
2019-02-23T01:43:04.928Z,7.58
2019-02-23T01:46:10.936Z,6.90
2019-02-23T01:49:16.752Z,6.08
2019-02-23T01:52:22.748Z,6.05
2019-02-23T01:55:28.563Z,6.80
2019-02-23T01:58:34.531Z,5.85
2019-02-23T02:01:40.933Z,7.15
2019-02-23T02:04:46.857Z,7.53
2019-02-23T02:07:52.856Z,6.75
2019-02-23T02:10:59.835Z,7.00
2019-02-23T02:14:05.963Z,7.55
2019-02-23T02:17:12.268Z,6.28
2019-02-23T02:20:18.188Z,7.33
2019-02-23T02:23:24.192Z,7.90
2019-02-23T02:26:30.012Z,6.30
2019-02-23T02:29:36.027Z,7.30
2019-02-23T02:32:41.928Z,6.55
2019-02-23T02:35:47.952Z,6.17
2019-02-23T02:38:53.892Z,6.03
2019-02-23T02:42:00.733Z,6.45
2019-02-23T02:45:07.652Z,6.78
2019-02-23T02:48:13.400Z,5.80
2019-02-23T02:51:19.238Z,6.53
2019-02-23T02:54:25.342Z,7.03
2019-02-23T02:57:31.383Z,6.12
2019-02-23T03:00:37.407Z,7.33
2019-02-23T03:03:43.275Z,6.03
2019-02-23T03:06:49.332Z,8.05
2019-02-23T03:09:55.395Z,8.30
2019-02-23T03:13:02.381Z,6.47
2019-02-23T03:16:08.334Z,6.87
2019-02-23T03:19:14.300Z,6.47
2019-02-23T03:22:20.247Z,5.20
2019-02-23T03:25:26.108Z,6.50
2019-02-23T03:28:32.074Z,7.95
2019-02-23T03:31:37.872Z,8.05
2019-02-23T03:34:43.892Z,5.50
2019-02-23T03:37:49.847Z,8.43
2019-02-23T03:40:55.708Z,6.75
2019-02-23T03:44:01.668Z,6.10
2019-02-23T03:47:07.624Z,6.03
2019-02-23T03:50:13.387Z,6.50
2019-02-23T03:53:19.136Z,5.60
2019-02-23T03:56:24.998Z,6.72
2019-02-23T03:59:30.844Z,8.08
2019-02-23T04:02:36.740Z,6.83
2019-02-23T04:05:42.452Z,7.83
2019-02-23T04:08:48.322Z,6.85
2019-02-23T04:11:54.172Z,5.95
2019-02-23T04:15:00.397Z,5.17
2019-02-23T04:18:06.233Z,5.97
2019-02-23T04:21:12.052Z,6.10
2019-02-23T04:24:17.919Z,5.53
2019-02-23T04:27:23.877Z,6.45
2019-02-23T04:30:29.734Z,6.17
2019-02-23T04:33:35.727Z,7.50
2019-02-23T04:36:41.649Z,6.30
2019-02-23T04:39:47.518Z,5.97
2019-02-23T04:42:53.472Z,7.70
2019-02-23T04:45:59.333Z,6.12
2019-02-23T04:49:05.329Z,5.42
2019-02-23T04:52:11.189Z,6.40
2019-02-23T04:55:17.009Z,5.75
2019-02-23T04:58:23.064Z,7.87
2019-02-23T05:01:29.024Z,6.97
2019-02-23T05:04:34.880Z,7.08
2019-02-23T05:07:40.886Z,6.50
2019-02-23T05:10:46.809Z,6.65
2019-02-23T05:13:52.770Z,5.92
2019-02-23T05:16:58.516Z,7.10
2019-02-23T05:20:06.010Z,7.53
2019-02-23T05:23:12.124Z,6.47
2019-02-23T05:26:17.939Z,7.12
2019-02-23T05:29:23.839Z,7.67
2019-02-23T05:32:29.537Z,6.50
2019-02-23T05:35:35.332Z,7.45
2019-02-23T05:38:41.196Z,6.40
2019-02-23T05:41:47.130Z,7.17
2019-02-23T05:44:53.080Z,6.00
2019-02-23T05:47:59.076Z,7.80
2019-02-23T05:51:04.995Z,7.30
2019-02-23T05:54:10.990Z,8.28
2019-02-23T05:57:16.813Z,8.28
2019-02-23T06:00:22.754Z,8.58
2019-02-23T06:03:28.711Z,7.20
2019-02-23T06:06:34.668Z,6.97
2019-02-23T06:09:40.566Z,7.78
2019-02-23T06:12:46.415Z,6.87
2019-02-23T06:15:52.132Z,4.75
2019-02-23T06:18:57.932Z,5.80
2019-02-23T06:22:03.736Z,5.25
2019-02-23T06:25:10.255Z,6.35
2019-02-23T06:28:16.044Z,6.70
2019-02-23T06:31:21.921Z,5.70
2019-02-23T06:34:27.728Z,5.67
2019-02-23T06:37:33.544Z,4.92
2019-02-23T06:40:39.548Z,6.00
2019-02-23T06:43:45.406Z,4.53
2019-02-23T06:46:51.364Z,4.90
2019-02-23T06:49:57.244Z,5.83
2019-02-23T06:53:03.238Z,5.87
2019-02-23T06:56:09.134Z,8.43
2019-02-23T06:59:15.063Z,9.20
2019-02-23T07:02:20.808Z,8.20
2019-02-23T07:05:26.680Z,9.15
2019-02-23T07:08:32.762Z,7.47
2019-02-23T07:11:39.512Z,8.83
2019-02-23T07:14:45.576Z,8.88
2019-02-23T07:17:51.438Z,9.25
2019-02-23T07:20:57.298Z,9.88
2019-02-23T07:24:03.296Z,9.80
2019-02-23T07:27:09.108Z,9.65
2019-02-23T07:30:15.078Z,10.05
2019-02-23T07:33:32.355Z,8.68
2019-02-23T07:36:28.631Z,10.48
2019-02-23T07:39:34.479Z,8.75
2019-02-23T07:42:40.341Z,8.20
2019-02-23T07:45:46.204Z,9.13
2019-02-23T07:48:52.158Z,11.80
2019-02-23T07:51:58.115Z,14.50
2019-02-23T07:55:04.083Z,12.18
2019-02-23T07:58:10.959Z,11.05
2019-02-23T08:01:16.824Z,13.53
2019-02-23T08:04:22.616Z,12.18
2019-02-23T08:07:28.639Z,13.88
2019-02-23T08:10:34.499Z,11.28
2019-02-23T08:13:40.780Z,8.83
2019-02-23T08:16:46.981Z,12.78
2019-02-23T08:19:52.811Z,8.80
2019-02-23T08:22:58.740Z,11.85
2019-02-23T08:26:04.607Z,8.48
2019-02-23T08:29:10.451Z,9.88
2019-02-23T08:32:16.719Z,7.83
2019-02-23T08:35:22.872Z,9.03
2019-02-23T08:38:28.852Z,7.55
2019-02-23T08:41:35.728Z,6.60
2019-02-23T08:44:42.612Z,8.20
2019-02-23T08:47:48.475Z,8.38
2019-02-23T08:50:54.355Z,7.58
2019-02-23T08:54:00.076Z,7.67
2019-02-23T08:57:05.940Z,6.72
2019-02-23T09:00:13.947Z,6.80
2019-02-23T09:03:20.715Z,8.00
2019-02-23T09:06:26.520Z,6.42
2019-02-23T09:09:32.337Z,7.25
2019-02-23T09:12:38.341Z,6.17
2019-02-23T09:15:44.358Z,8.55
2019-02-23T09:18:50.116Z,7.53
2019-02-23T09:21:55.979Z,7.30
2019-02-23T09:25:01.933Z,8.40
2019-02-23T09:28:07.905Z,8.48
2019-02-23T09:31:14.000Z,6.03
2019-02-23T09:34:19.921Z,6.33
2019-02-23T09:37:25.932Z,6.90
2019-02-23T09:40:31.835Z,7.20
2019-02-23T09:43:37.731Z,6.95
2019-02-23T09:46:43.688Z,6.67
2019-02-23T09:49:49.719Z,6.40
2019-02-23T09:52:55.785Z,6.25
2019-02-23T09:56:01.572Z,6.12
2019-02-23T09:59:07.397Z,6.33
2019-02-23T10:02:13.566Z,6.70
2019-02-23T10:05:19.311Z,5.97
2019-02-23T10:08:25.171Z,7.70
2019-02-23T10:11:30.968Z,5.53
2019-02-23T10:14:36.883Z,5.87
2019-02-23T10:17:42.905Z,5.40
2019-02-23T10:20:48.700Z,5.37
2019-02-23T10:23:54.712Z,6.20
2019-02-23T10:27:00.616Z,4.50
2019-02-23T10:30:07.431Z,5.97
2019-02-23T10:33:13.296Z,5.20
2019-02-23T10:36:19.152Z,4.90
2019-02-23T10:39:25.076Z,5.12
2019-02-23T10:42:31.180Z,6.05
2019-02-23T10:45:37.104Z,5.22
2019-02-23T10:48:43.000Z,5.12
2019-02-23T10:51:48.818Z,5.37
2019-02-23T10:54:54.668Z,6.42
2019-02-23T10:58:00.629Z,4.87
2019-02-23T11:01:07.119Z,5.33
2019-02-23T11:04:13.068Z,5.20
2019-02-23T11:07:19.324Z,4.60
2019-02-23T11:10:25.400Z,4.25
2019-02-23T11:13:31.252Z,5.05
2019-02-23T11:16:37.148Z,4.53
2019-02-23T11:19:43.071Z,4.37
2019-02-23T11:22:48.929Z,5.20
2019-02-23T11:25:54.780Z,4.67
2019-02-23T11:29:00.535Z,4.83
2019-02-23T11:32:07.552Z,4.53
2019-02-23T11:35:13.588Z,4.17
2019-02-23T11:38:19.442Z,4.45
2019-02-23T11:41:25.239Z,4.67
2019-02-23T11:44:31.091Z,3.83
2019-02-23T11:47:36.803Z,3.72
2019-02-23T11:50:42.915Z,3.60
2019-02-23T11:53:54.940Z,4.75
2019-02-23T11:56:56.260Z,4.47
2019-02-23T12:00:02.184Z,4.97
2019-02-23T12:03:08.057Z,4.28
2019-02-23T12:06:13.928Z,3.22
2019-02-23T12:09:19.782Z,4.08
2019-02-23T12:12:25.788Z,4.70
2019-02-23T12:15:31.806Z,4.22
2019-02-23T12:18:37.873Z,4.62
2019-02-23T12:21:43.824Z,4.20
2019-02-23T12:24:49.795Z,3.80
2019-02-23T12:27:55.780Z,3.90
2019-02-23T12:31:01.600Z,4.22
2019-02-23T12:34:07.560Z,3.17
2019-02-23T12:37:13.530Z,4.12
2019-02-23T12:40:19.495Z,3.33
2019-02-23T12:43:25.269Z,3.65
2019-02-23T12:46:30.983Z,3.40
2019-02-23T12:49:36.740Z,4.05
2019-02-23T12:52:42.600Z,2.95
2019-02-23T12:55:48.465Z,4.45
2019-02-23T12:58:54.365Z,5.10
2019-02-23T13:02:00.178Z,3.65
2019-02-23T13:05:06.544Z,2.95
2019-02-23T13:08:12.405Z,3.42
2019-02-23T13:11:18.261Z,4.03
2019-02-23T13:14:51.704Z,3.75
2019-02-23T13:18:47.436Z,4.42
2019-02-23T13:22:19.672Z,3.72
2019-02-23T13:25:42.931Z,3.47
2019-02-23T13:29:02.356Z,3.85
2019-02-23T13:32:51.691Z,3.45
2019-02-23T13:36:34.207Z,3.30
2019-02-23T13:40:20.612Z,3.90
2019-02-23T13:43:52.688Z,3.30
2019-02-23T13:47:41.448Z,3.50
2019-02-23T13:51:10.759Z,3.33
2019-02-23T13:54:59.220Z,3.60
2019-02-23T13:58:31.796Z,3.42
2019-02-23T14:02:16.880Z,3.12
2019-02-23T14:06:07.584Z,3.52
2019-02-23T14:10:00.349Z,3.45
2019-02-23T14:13:42.591Z,3.05
2019-02-23T14:17:16.060Z,3.17
2019-02-23T14:20:54.992Z,3.42
2019-02-23T14:24:21.836Z,2.50
2019-02-23T14:28:03.127Z,3.80
2019-02-23T14:32:02.236Z,4.40
2019-02-23T14:35:31.884Z,5.17
2019-02-23T14:39:32.796Z,3.10
2019-02-23T14:43:04.290Z,2.45
2019-02-23T14:46:56.245Z,3.33
2019-02-23T14:50:36.079Z,3.02
2019-02-23T14:54:03.718Z,3.37
2019-02-23T14:57:45.116Z,2.92
2019-02-23T15:01:34.831Z,3.05
2019-02-23T15:05:10.756Z,2.52
2019-02-23T15:08:56.895Z,3.08
2019-02-23T15:12:41.729Z,2.55
2019-02-23T15:16:39.853Z,2.98
2019-02-23T15:20:29.428Z,2.65
2019-02-23T15:24:01.568Z,2.90
2019-02-23T15:27:43.572Z,2.77
2019-02-23T15:31:25.000Z,2.70
2019-02-23T15:35:11.086Z,2.45
2019-02-23T15:39:02.394Z,2.80
2019-02-23T15:42:37.520Z,2.62
2019-02-23T15:46:08.234Z,2.37
2019-02-23T15:49:29.413Z,2.87
2019-02-23T15:52:35.401Z,3.52
2019-02-23T15:55:41.348Z,1.95
2019-02-23T15:58:47.053Z,2.50
2019-02-23T16:01:53.072Z,2.30
2019-02-23T16:04:58.972Z,2.33
2019-02-23T16:08:04.874Z,2.65
2019-02-23T16:11:10.831Z,2.85
2019-02-23T16:14:16.652Z,3.67
2019-02-23T16:17:22.448Z,2.77
2019-02-23T16:20:28.369Z,2.70
2019-02-23T16:23:35.596Z,2.35
2019-02-23T16:26:41.972Z,2.37
2019-02-23T16:29:48.006Z,3.80
2019-02-23T16:32:54.405Z,2.58
2019-02-23T16:36:00.315Z,2.37
2019-02-23T16:39:10.859Z,3.10
2019-02-23T16:42:18.317Z,2.92
2019-02-23T16:45:24.239Z,2.60
2019-02-23T16:48:30.349Z,2.80
2019-02-23T16:51:36.208Z,2.65
2019-02-23T16:54:42.230Z,2.15
2019-02-23T16:57:48.073Z,2.45
2019-02-23T17:00:54.142Z,3.85
2019-02-23T17:03:59.999Z,3.10
2019-02-23T17:07:06.074Z,3.33
2019-02-23T17:10:12.029Z,3.45
2019-02-23T17:13:17.988Z,3.22
2019-02-23T17:16:23.840Z,3.75
2019-02-23T17:19:29.700Z,3.08
2019-02-23T17:22:35.562Z,3.00
2019-02-23T17:25:41.409Z,3.65
2019-02-23T17:28:47.264Z,2.65
2019-02-23T17:31:53.119Z,3.27
2019-02-23T17:34:58.876Z,4.17
2019-02-23T17:38:15.737Z,3.42
2019-02-23T17:41:12.238Z,3.33
2019-02-23T17:44:18.100Z,3.08
2019-02-23T17:47:23.959Z,3.75
2019-02-23T17:50:30.030Z,2.72
2019-02-23T17:53:35.767Z,4.28
2019-02-23T17:56:41.732Z,4.95
2019-02-23T17:59:47.591Z,3.98
2019-02-23T18:02:53.704Z,3.77
2019-02-23T18:05:59.604Z,4.05
2019-02-23T18:09:07.304Z,4.05
2019-02-23T18:12:14.740Z,4.03
2019-02-23T18:15:20.660Z,4.53
2019-02-23T18:18:26.629Z,3.92
2019-02-23T18:21:32.484Z,4.87
2019-02-23T18:24:38.336Z,4.85
2019-02-23T18:27:44.240Z,5.05
2019-02-23T18:30:51.068Z,5.97
2019-02-23T18:33:56.930Z,4.47
2019-02-23T18:37:02.797Z,5.97
2019-02-23T18:40:08.948Z,7.15
2019-02-23T18:43:14.743Z,6.05
2019-02-23T18:46:20.572Z,6.25
2019-02-23T18:49:26.528Z,6.47
2019-02-23T18:52:32.391Z,6.62
2019-02-23T18:55:41.088Z,5.22
2019-02-23T18:58:45.781Z,6.50
2019-02-23T19:01:51.597Z,6.92
2019-02-23T19:04:57.459Z,6.50
2019-02-23T19:08:03.451Z,8.00
2019-02-23T19:11:10.605Z,8.35
2019-02-23T19:14:16.387Z,6.55
2019-02-23T19:17:22.108Z,7.20
2019-02-23T19:20:27.860Z,7.28
2019-02-23T19:23:33.764Z,7.25
2019-02-23T19:26:39.579Z,8.08
2019-02-23T19:29:45.582Z,8.03
2019-02-23T19:32:51.404Z,8.88
2019-02-23T19:35:57.361Z,9.20
2019-02-23T19:39:03.262Z,8.93
2019-02-23T19:42:10.928Z,9.35
2019-02-23T19:45:16.996Z,10.03
2019-02-23T19:48:22.989Z,8.28
2019-02-23T19:51:28.897Z,8.70
2019-02-23T19:54:34.696Z,9.93
2019-02-23T19:57:40.511Z,9.20
2019-02-23T20:00:46.479Z,10.60
2019-02-23T20:03:52.259Z,8.65
2019-02-23T20:06:58.175Z,8.78
2019-02-23T20:10:04.091Z,10.55
2019-02-23T20:13:09.999Z,9.28
2019-02-23T20:16:15.965Z,9.28
2019-02-23T20:19:21.860Z,9.30
2019-02-23T20:22:27.784Z,8.75
2019-02-23T20:25:33.796Z,7.58
2019-02-23T20:28:39.743Z,8.08
2019-02-23T20:31:45.660Z,7.92
2019-02-23T20:34:51.464Z,8.03
2019-02-23T20:37:57.472Z,8.53
2019-02-23T20:41:03.378Z,8.75
2019-02-23T20:44:09.228Z,8.78
2019-02-23T20:47:14.943Z,9.15
2019-02-23T20:50:22.030Z,8.90
2019-02-23T20:53:28.040Z,10.10
2019-02-23T20:56:33.964Z,9.53
2019-02-23T20:59:39.956Z,9.23
2019-02-23T21:02:45.780Z,9.68
2019-02-23T21:05:51.740Z,8.53
2019-02-23T21:08:57.701Z,9.58
2019-02-23T21:12:03.440Z,8.30
2019-02-23T21:15:09.647Z,8.75
2019-02-23T21:18:17.108Z,8.28
2019-02-23T21:21:22.975Z,10.45
2019-02-23T21:24:28.928Z,10.05
2019-02-23T21:27:34.892Z,11.05
2019-02-23T21:30:40.847Z,10.65
2019-02-23T21:33:46.808Z,10.20
2019-02-23T21:36:52.879Z,10.68
2019-02-23T21:39:58.839Z,10.05
2019-02-23T21:43:04.687Z,9.98
2019-02-23T21:46:10.444Z,10.53
2019-02-23T21:49:16.327Z,9.70
2019-02-23T21:52:22.048Z,11.18
2019-02-23T21:55:27.912Z,10.35
2019-02-23T21:58:33.669Z,11.03
2019-02-23T22:01:39.532Z,11.35
2019-02-23T22:04:45.528Z,11.85
2019-02-23T22:07:51.455Z,10.90
2019-02-23T22:10:57.412Z,11.25
2019-02-23T22:14:03.422Z,10.90
2019-02-23T22:17:09.545Z,10.43
2019-02-23T22:20:15.533Z,10.32
2019-02-23T22:23:21.456Z,12.00
2019-02-23T22:26:27.334Z,9.98
2019-02-23T22:29:33.224Z,11.35
2019-02-23T22:32:39.128Z,11.60
2019-02-23T22:35:45.192Z,12.90
2019-02-23T22:38:51.169Z,12.60
2019-02-23T22:41:57.112Z,12.25
2019-02-23T22:45:03.008Z,11.30
2019-02-23T22:48:08.928Z,11.15
2019-02-23T22:51:14.983Z,17.80
2019-02-23T22:54:20.953Z,9.60
2019-02-23T22:57:26.859Z,9.05
2019-02-23T23:00:50.628Z,12.00
2019-02-23T23:03:58.227Z,12.37
2019-02-23T23:07:05.262Z,12.85
2019-02-23T23:10:13.099Z,13.68
2019-02-23T23:13:20.267Z,11.55
2019-02-23T23:16:26.248Z,12.93
2019-02-23T23:19:32.081Z,14.83
2019-02-23T23:22:37.940Z,12.98
2019-02-23T23:25:43.932Z,11.73
2019-02-23T23:28:49.860Z,12.18
2019-02-23T23:32:25.968Z,12.93
2019-02-23T23:35:31.984Z,11.93
2019-02-23T23:38:37.944Z,18.05
2019-02-23T23:41:44.045Z,11.85
2019-02-23T23:44:49.967Z,14.25
2019-02-23T23:47:56.071Z,12.10
2019-02-23T23:51:02.096Z,11.35
2019-02-23T23:54:08.043Z,12.18
2019-02-23T23:57:14.012Z,10.85
